sensor_id;sensor_type;location;lat;lon;timestamp;P1;durP1;ratioP1;P2;durP2;ratioP2
4766;SDS011;2397;53.576;9.746;2023-05-07T00:01:26;11.60;;;9.40;;
4766;SDS011;2397;53.576;9.746;2023-05-07T00:03:53;13.07;;;10.03;;
4766;SDS011;2397;53.576;9.746;2023-05-07T00:06:20;11.93;;;9.33;;
4766;SDS011;2397;53.576;9.746;2023-05-07T00:08:46;11.83;;;9.63;;
4766;SDS011;2397;53.576;9.746;2023-05-07T00:11:13;15.70;;;11.33;;
4766;SDS011;2397;53.576;9.746;2023-05-07T00:13:39;12.40;;;10.20;;
4766;SDS011;2397;53.576;9.746;2023-05-07T00:16:05;11.60;;;9.03;;
4766;SDS011;2397;53.576;9.746;2023-05-07T00:18:32;14.10;;;10.97;;
4766;SDS011;2397;53.576;9.746;2023-05-07T00:20:59;15.10;;;11.50;;
4766;SDS011;2397;53.576;9.746;2023-05-07T00:23:25;15.30;;;10.57;;
4766;SDS011;2397;53.576;9.746;2023-05-07T00:25:52;13.90;;;11.13;;
4766;SDS011;2397;53.576;9.746;2023-05-07T00:28:18;13.53;;;10.83;;
4766;SDS011;2397;53.576;9.746;2023-05-07T00:30:45;13.40;;;10.20;;
4766;SDS011;2397;53.576;9.746;2023-05-07T00:33:11;15.00;;;11.30;;
4766;SDS011;2397;53.576;9.746;2023-05-07T00:35:38;14.07;;;10.03;;
4766;SDS011;2397;53.576;9.746;2023-05-07T00:38:05;11.90;;;9.90;;
4766;SDS011;2397;53.576;9.746;2023-05-07T00:40:32;12.90;;;10.00;;
4766;SDS011;2397;53.576;9.746;2023-05-07T00:42:58;13.43;;;10.63;;
4766;SDS011;2397;53.576;9.746;2023-05-07T00:45:27;16.73;;;11.80;;
4766;SDS011;2397;53.576;9.746;2023-05-07T00:47:58;16.10;;;11.13;;
4766;SDS011;2397;53.576;9.746;2023-05-07T00:50:27;11.80;;;10.40;;
4766;SDS011;2397;53.576;9.746;2023-05-07T00:52:54;14.70;;;10.80;;
4766;SDS011;2397;53.576;9.746;2023-05-07T00:55:21;12.37;;;10.83;;
4766;SDS011;2397;53.576;9.746;2023-05-07T00:57:49;14.50;;;10.93;;
4766;SDS011;2397;53.576;9.746;2023-05-07T01:00:17;11.70;;;9.77;;
4766;SDS011;2397;53.576;9.746;2023-05-07T01:02:44;11.63;;;10.20;;
4766;SDS011;2397;53.576;9.746;2023-05-07T01:05:11;12.43;;;10.23;;
4766;SDS011;2397;53.576;9.746;2023-05-07T01:07:41;12.20;;;9.90;;
4766;SDS011;2397;53.576;9.746;2023-05-07T01:10:08;10.80;;;9.30;;
4766;SDS011;2397;53.576;9.746;2023-05-07T01:12:37;14.03;;;10.47;;
4766;SDS011;2397;53.576;9.746;2023-05-07T01:15:05;13.07;;;10.50;;
4766;SDS011;2397;53.576;9.746;2023-05-07T01:17:34;14.93;;;9.07;;
4766;SDS011;2397;53.576;9.746;2023-05-07T01:20:06;11.70;;;8.37;;
4766;SDS011;2397;53.576;9.746;2023-05-07T01:22:35;9.67;;;8.67;;
4766;SDS011;2397;53.576;9.746;2023-05-07T01:25:04;10.70;;;8.37;;
4766;SDS011;2397;53.576;9.746;2023-05-07T01:27:32;9.50;;;8.40;;
4766;SDS011;2397;53.576;9.746;2023-05-07T01:30:04;10.93;;;7.80;;
4766;SDS011;2397;53.576;9.746;2023-05-07T01:32:38;13.63;;;7.83;;
4766;SDS011;2397;53.576;9.746;2023-05-07T01:35:07;8.37;;;7.37;;
4766;SDS011;2397;53.576;9.746;2023-05-07T01:37:37;8.27;;;7.47;;
4766;SDS011;2397;53.576;9.746;2023-05-07T01:40:06;9.17;;;8.20;;
4766;SDS011;2397;53.576;9.746;2023-05-07T01:42:34;9.00;;;7.43;;
4766;SDS011;2397;53.576;9.746;2023-05-07T01:45:00;10.70;;;8.20;;
4766;SDS011;2397;53.576;9.746;2023-05-07T01:47:27;7.90;;;7.10;;
4766;SDS011;2397;53.576;9.746;2023-05-07T01:49:54;11.10;;;8.23;;
4766;SDS011;2397;53.576;9.746;2023-05-07T01:52:21;10.40;;;8.30;;
4766;SDS011;2397;53.576;9.746;2023-05-07T01:54:48;10.90;;;8.50;;
4766;SDS011;2397;53.576;9.746;2023-05-07T01:57:14;8.10;;;7.17;;
4766;SDS011;2397;53.576;9.746;2023-05-07T01:59:41;8.50;;;7.20;;
4766;SDS011;2397;53.576;9.746;2023-05-07T02:02:07;8.63;;;7.77;;
4766;SDS011;2397;53.576;9.746;2023-05-07T02:04:36;7.87;;;7.17;;
4766;SDS011;2397;53.576;9.746;2023-05-07T02:07:02;8.00;;;7.20;;
4766;SDS011;2397;53.576;9.746;2023-05-07T02:09:29;11.00;;;7.63;;
4766;SDS011;2397;53.576;9.746;2023-05-07T02:11:56;7.97;;;7.03;;
4766;SDS011;2397;53.576;9.746;2023-05-07T02:14:23;8.87;;;7.97;;
4766;SDS011;2397;53.576;9.746;2023-05-07T02:16:49;8.20;;;6.93;;
4766;SDS011;2397;53.576;9.746;2023-05-07T02:19:16;9.50;;;8.27;;
4766;SDS011;2397;53.576;9.746;2023-05-07T02:21:43;8.50;;;7.73;;
4766;SDS011;2397;53.576;9.746;2023-05-07T02:24:10;8.10;;;7.30;;
4766;SDS011;2397;53.576;9.746;2023-05-07T02:26:37;9.23;;;8.07;;
4766;SDS011;2397;53.576;9.746;2023-05-07T02:29:03;7.80;;;7.10;;
4766;SDS011;2397;53.576;9.746;2023-05-07T02:31:30;9.43;;;8.43;;
4766;SDS011;2397;53.576;9.746;2023-05-07T02:33:57;8.30;;;7.50;;
4766;SDS011;2397;53.576;9.746;2023-05-07T02:36:24;9.27;;;8.07;;
4766;SDS011;2397;53.576;9.746;2023-05-07T02:38:59;8.47;;;7.67;;
4766;SDS011;2397;53.576;9.746;2023-05-07T02:41:27;10.23;;;7.80;;
4766;SDS011;2397;53.576;9.746;2023-05-07T02:43:54;8.20;;;7.13;;
4766;SDS011;2397;53.576;9.746;2023-05-07T02:46:21;7.70;;;6.80;;
4766;SDS011;2397;53.576;9.746;2023-05-07T02:48:55;10.40;;;7.67;;
4766;SDS011;2397;53.576;9.746;2023-05-07T02:51:22;7.93;;;7.20;;
4766;SDS011;2397;53.576;9.746;2023-05-07T02:53:53;9.10;;;6.97;;
4766;SDS011;2397;53.576;9.746;2023-05-07T02:56:20;9.07;;;8.20;;
4766;SDS011;2397;53.576;9.746;2023-05-07T02:58:47;9.03;;;8.13;;
4766;SDS011;2397;53.576;9.746;2023-05-07T03:01:14;8.20;;;7.13;;
4766;SDS011;2397;53.576;9.746;2023-05-07T03:03:50;11.70;;;8.27;;
4766;SDS011;2397;53.576;9.746;2023-05-07T03:06:17;9.57;;;7.70;;
4766;SDS011;2397;53.576;9.746;2023-05-07T03:08:43;10.43;;;8.37;;
4766;SDS011;2397;53.576;9.746;2023-05-07T03:11:10;8.23;;;7.33;;
4766;SDS011;2397;53.576;9.746;2023-05-07T03:13:36;11.93;;;7.77;;
4766;SDS011;2397;53.576;9.746;2023-05-07T03:16:03;8.80;;;7.90;;
4766;SDS011;2397;53.576;9.746;2023-05-07T03:18:30;9.90;;;7.97;;
4766;SDS011;2397;53.576;9.746;2023-05-07T03:20:56;10.10;;;8.37;;
4766;SDS011;2397;53.576;9.746;2023-05-07T03:23:23;11.60;;;8.80;;
4766;SDS011;2397;53.576;9.746;2023-05-07T03:25:50;9.63;;;8.63;;
4766;SDS011;2397;53.576;9.746;2023-05-07T03:28:17;10.23;;;8.57;;
4766;SDS011;2397;53.576;9.746;2023-05-07T03:30:52;11.00;;;8.80;;
4766;SDS011;2397;53.576;9.746;2023-05-07T03:33:19;10.00;;;8.20;;
4766;SDS011;2397;53.576;9.746;2023-05-07T03:35:46;10.47;;;8.83;;
4766;SDS011;2397;53.576;9.746;2023-05-07T03:38:18;9.60;;;7.87;;
4766;SDS011;2397;53.576;9.746;2023-05-07T03:40:45;11.27;;;8.63;;
4766;SDS011;2397;53.576;9.746;2023-05-07T03:43:11;11.70;;;9.43;;
4766;SDS011;2397;53.576;9.746;2023-05-07T03:45:43;11.20;;;9.80;;
4766;SDS011;2397;53.576;9.746;2023-05-07T03:48:14;10.93;;;8.43;;
4766;SDS011;2397;53.576;9.746;2023-05-07T03:50:41;11.00;;;8.13;;
4766;SDS011;2397;53.576;9.746;2023-05-07T03:53:08;10.63;;;8.60;;
4766;SDS011;2397;53.576;9.746;2023-05-07T03:55:37;10.77;;;8.53;;
4766;SDS011;2397;53.576;9.746;2023-05-07T03:58:04;14.53;;;9.00;;
4766;SDS011;2397;53.576;9.746;2023-05-07T04:00:31;11.30;;;8.90;;
4766;SDS011;2397;53.576;9.746;2023-05-07T04:03:13;9.37;;;8.37;;
4766;SDS011;2397;53.576;9.746;2023-05-07T04:05:40;10.83;;;8.77;;
4766;SDS011;2397;53.576;9.746;2023-05-07T04:08:08;9.97;;;8.93;;
4766;SDS011;2397;53.576;9.746;2023-05-07T04:10:38;9.00;;;8.10;;
4766;SDS011;2397;53.576;9.746;2023-05-07T04:13:08;9.97;;;8.07;;
4766;SDS011;2397;53.576;9.746;2023-05-07T04:15:36;10.93;;;8.63;;
4766;SDS011;2397;53.576;9.746;2023-05-07T04:18:05;9.67;;;8.30;;
4766;SDS011;2397;53.576;9.746;2023-05-07T04:20:33;10.27;;;8.47;;
4766;SDS011;2397;53.576;9.746;2023-05-07T04:23:04;12.30;;;9.10;;
4766;SDS011;2397;53.576;9.746;2023-05-07T04:25:31;9.20;;;8.10;;
4766;SDS011;2397;53.576;9.746;2023-05-07T04:28:06;11.80;;;9.17;;
4766;SDS011;2397;53.576;9.746;2023-05-07T04:30:33;9.67;;;8.20;;
4766;SDS011;2397;53.576;9.746;2023-05-07T04:33:01;9.90;;;8.83;;
4766;SDS011;2397;53.576;9.746;2023-05-07T04:35:29;10.73;;;8.40;;
4766;SDS011;2397;53.576;9.746;2023-05-07T04:37:57;11.67;;;9.13;;
4766;SDS011;2397;53.576;9.746;2023-05-07T04:40:24;10.57;;;8.00;;
4766;SDS011;2397;53.576;9.746;2023-05-07T04:42:50;12.00;;;9.07;;
4766;SDS011;2397;53.576;9.746;2023-05-07T04:45:17;10.80;;;8.60;;
4766;SDS011;2397;53.576;9.746;2023-05-07T04:47:45;9.60;;;8.33;;
4766;SDS011;2397;53.576;9.746;2023-05-07T04:50:12;10.30;;;8.80;;
4766;SDS011;2397;53.576;9.746;2023-05-07T04:52:40;9.47;;;8.40;;
4766;SDS011;2397;53.576;9.746;2023-05-07T04:55:07;10.80;;;9.03;;
4766;SDS011;2397;53.576;9.746;2023-05-07T04:57:37;12.57;;;9.13;;
4766;SDS011;2397;53.576;9.746;2023-05-07T05:00:06;10.60;;;8.23;;
4766;SDS011;2397;53.576;9.746;2023-05-07T05:02:37;10.60;;;9.00;;
4766;SDS011;2397;53.576;9.746;2023-05-07T05:05:04;11.20;;;8.73;;
4766;SDS011;2397;53.576;9.746;2023-05-07T05:07:31;10.50;;;8.77;;
4766;SDS011;2397;53.576;9.746;2023-05-07T05:09:58;11.20;;;8.27;;
4766;SDS011;2397;53.576;9.746;2023-05-07T05:12:24;9.23;;;8.27;;
4766;SDS011;2397;53.576;9.746;2023-05-07T05:14:51;8.93;;;8.03;;
4766;SDS011;2397;53.576;9.746;2023-05-07T05:17:18;10.10;;;8.67;;
4766;SDS011;2397;53.576;9.746;2023-05-07T05:19:45;11.17;;;8.90;;
4766;SDS011;2397;53.576;9.746;2023-05-07T05:22:12;10.03;;;9.00;;
4766;SDS011;2397;53.576;9.746;2023-05-07T05:24:39;8.93;;;7.80;;
4766;SDS011;2397;53.576;9.746;2023-05-07T05:27:05;10.13;;;8.40;;
4766;SDS011;2397;53.576;9.746;2023-05-07T05:29:32;9.27;;;8.37;;
4766;SDS011;2397;53.576;9.746;2023-05-07T05:31:59;11.00;;;8.53;;
4766;SDS011;2397;53.576;9.746;2023-05-07T05:34:28;10.33;;;9.00;;
4766;SDS011;2397;53.576;9.746;2023-05-07T05:36:55;11.97;;;9.67;;
4766;SDS011;2397;53.576;9.746;2023-05-07T05:39:22;10.53;;;8.47;;
4766;SDS011;2397;53.576;9.746;2023-05-07T05:41:49;11.67;;;9.10;;
4766;SDS011;2397;53.576;9.746;2023-05-07T05:44:16;10.97;;;8.83;;
4766;SDS011;2397;53.576;9.746;2023-05-07T05:46:43;12.90;;;8.60;;
4766;SDS011;2397;53.576;9.746;2023-05-07T05:49:10;11.33;;;8.30;;
4766;SDS011;2397;53.576;9.746;2023-05-07T05:51:37;10.87;;;7.77;;
4766;SDS011;2397;53.576;9.746;2023-05-07T05:54:04;10.57;;;8.63;;
4766;SDS011;2397;53.576;9.746;2023-05-07T05:56:31;9.80;;;7.93;;
4766;SDS011;2397;53.576;9.746;2023-05-07T05:58:58;10.07;;;8.37;;
4766;SDS011;2397;53.576;9.746;2023-05-07T06:01:25;9.30;;;8.20;;
4766;SDS011;2397;53.576;9.746;2023-05-07T06:03:54;8.73;;;7.50;;
4766;SDS011;2397;53.576;9.746;2023-05-07T06:06:20;11.60;;;9.27;;
4766;SDS011;2397;53.576;9.746;2023-05-07T06:08:47;13.23;;;8.40;;
4766;SDS011;2397;53.576;9.746;2023-05-07T06:11:19;10.73;;;9.00;;
4766;SDS011;2397;53.576;9.746;2023-05-07T06:13:46;10.37;;;8.70;;
4766;SDS011;2397;53.576;9.746;2023-05-07T06:16:12;12.00;;;8.53;;
4766;SDS011;2397;53.576;9.746;2023-05-07T06:18:40;9.27;;;8.03;;
4766;SDS011;2397;53.576;9.746;2023-05-07T06:21:07;12.20;;;9.20;;
4766;SDS011;2397;53.576;9.746;2023-05-07T06:23:34;9.80;;;8.47;;
4766;SDS011;2397;53.576;9.746;2023-05-07T06:26:01;10.20;;;8.00;;
4766;SDS011;2397;53.576;9.746;2023-05-07T06:28:33;10.17;;;8.07;;
4766;SDS011;2397;53.576;9.746;2023-05-07T06:33:41;12.17;;;9.13;;
4766;SDS011;2397;53.576;9.746;2023-05-07T06:36:08;9.50;;;8.47;;
4766;SDS011;2397;53.576;9.746;2023-05-07T06:38:35;9.53;;;7.47;;
4766;SDS011;2397;53.576;9.746;2023-05-07T06:41:01;12.40;;;8.83;;
4766;SDS011;2397;53.576;9.746;2023-05-07T06:43:28;10.50;;;8.50;;
4766;SDS011;2397;53.576;9.746;2023-05-07T06:46:12;8.50;;;7.67;;
4766;SDS011;2397;53.576;9.746;2023-05-07T06:48:38;9.37;;;7.53;;
4766;SDS011;2397;53.576;9.746;2023-05-07T06:51:05;9.73;;;7.70;;
4766;SDS011;2397;53.576;9.746;2023-05-07T06:53:32;9.23;;;8.33;;
4766;SDS011;2397;53.576;9.746;2023-05-07T06:56:00;8.83;;;7.83;;
4766;SDS011;2397;53.576;9.746;2023-05-07T06:58:26;11.73;;;9.10;;
4766;SDS011;2397;53.576;9.746;2023-05-07T07:00:53;11.13;;;8.27;;
4766;SDS011;2397;53.576;9.746;2023-05-07T07:03:20;13.87;;;9.40;;
4766;SDS011;2397;53.576;9.746;2023-05-07T07:05:47;8.50;;;7.30;;
4766;SDS011;2397;53.576;9.746;2023-05-07T07:08:18;10.53;;;8.57;;
4766;SDS011;2397;53.576;9.746;2023-05-07T07:10:44;9.10;;;7.33;;
4766;SDS011;2397;53.576;9.746;2023-05-07T07:13:11;8.70;;;7.80;;
4766;SDS011;2397;53.576;9.746;2023-05-07T07:15:38;8.37;;;7.47;;
4766;SDS011;2397;53.576;9.746;2023-05-07T07:18:05;8.33;;;7.43;;
4766;SDS011;2397;53.576;9.746;2023-05-07T07:20:32;9.23;;;8.07;;
4766;SDS011;2397;53.576;9.746;2023-05-07T07:22:59;9.10;;;7.60;;
4766;SDS011;2397;53.576;9.746;2023-05-07T07:25:26;8.93;;;7.87;;
4766;SDS011;2397;53.576;9.746;2023-05-07T07:27:52;9.23;;;7.73;;
4766;SDS011;2397;53.576;9.746;2023-05-07T07:30:21;11.13;;;8.20;;
4766;SDS011;2397;53.576;9.746;2023-05-07T07:32:48;9.50;;;7.20;;
4766;SDS011;2397;53.576;9.746;2023-05-07T07:35:15;8.77;;;7.90;;
4766;SDS011;2397;53.576;9.746;2023-05-07T07:37:43;10.47;;;8.57;;
4766;SDS011;2397;53.576;9.746;2023-05-07T07:40:11;8.07;;;7.20;;
4766;SDS011;2397;53.576;9.746;2023-05-07T07:42:38;7.90;;;7.10;;
4766;SDS011;2397;53.576;9.746;2023-05-07T07:45:06;9.67;;;7.50;;
4766;SDS011;2397;53.576;9.746;2023-05-07T07:47:37;9.03;;;7.20;;
4766;SDS011;2397;53.576;9.746;2023-05-07T07:50:06;9.47;;;6.60;;
4766;SDS011;2397;53.576;9.746;2023-05-07T07:52:33;8.47;;;7.30;;
4766;SDS011;2397;53.576;9.746;2023-05-07T07:55:00;7.07;;;6.37;;
4766;SDS011;2397;53.576;9.746;2023-05-07T07:57:28;7.03;;;6.30;;
4766;SDS011;2397;53.576;9.746;2023-05-07T07:59:54;8.07;;;7.27;;
4766;SDS011;2397;53.576;9.746;2023-05-07T08:02:21;7.47;;;6.57;;
4766;SDS011;2397;53.576;9.746;2023-05-07T08:04:49;11.50;;;6.57;;
4766;SDS011;2397;53.576;9.746;2023-05-07T08:07:16;13.97;;;6.50;;
4766;SDS011;2397;53.576;9.746;2023-05-07T08:09:47;5.83;;;5.33;;
4766;SDS011;2397;53.576;9.746;2023-05-07T08:12:15;6.33;;;5.70;;
4766;SDS011;2397;53.576;9.746;2023-05-07T08:14:42;7.20;;;5.63;;
4766;SDS011;2397;53.576;9.746;2023-05-07T08:17:09;7.00;;;5.90;;
4766;SDS011;2397;53.576;9.746;2023-05-07T08:19:36;6.30;;;5.70;;
4766;SDS011;2397;53.576;9.746;2023-05-07T08:22:05;6.90;;;6.10;;
4766;SDS011;2397;53.576;9.746;2023-05-07T08:24:33;6.97;;;6.23;;
4766;SDS011;2397;53.576;9.746;2023-05-07T08:27:00;9.70;;;6.97;;
4766;SDS011;2397;53.576;9.746;2023-05-07T08:29:26;7.30;;;6.60;;
4766;SDS011;2397;53.576;9.746;2023-05-07T08:31:53;7.17;;;6.57;;
4766;SDS011;2397;53.576;9.746;2023-05-07T08:34:21;8.80;;;6.13;;
4766;SDS011;2397;53.576;9.746;2023-05-07T08:36:50;7.33;;;6.63;;
4766;SDS011;2397;53.576;9.746;2023-05-07T08:39:20;8.33;;;7.30;;
4766;SDS011;2397;53.576;9.746;2023-05-07T08:41:49;6.57;;;5.87;;
4766;SDS011;2397;53.576;9.746;2023-05-07T08:44:23;7.53;;;6.83;;
4766;SDS011;2397;53.576;9.746;2023-05-07T08:46:56;6.30;;;5.70;;
4766;SDS011;2397;53.576;9.746;2023-05-07T08:49:23;5.93;;;5.43;;
4766;SDS011;2397;53.576;9.746;2023-05-07T08:51:51;8.87;;;6.20;;
4766;SDS011;2397;53.576;9.746;2023-05-07T08:54:19;6.83;;;5.60;;
4766;SDS011;2397;53.576;9.746;2023-05-07T08:56:47;6.13;;;5.53;;
4766;SDS011;2397;53.576;9.746;2023-05-07T08:59:14;8.03;;;5.70;;
4766;SDS011;2397;53.576;9.746;2023-05-07T09:01:42;6.00;;;5.47;;
4766;SDS011;2397;53.576;9.746;2023-05-07T09:04:09;6.53;;;5.63;;
4766;SDS011;2397;53.576;9.746;2023-05-07T09:06:36;7.60;;;6.33;;
4766;SDS011;2397;53.576;9.746;2023-05-07T09:09:09;7.90;;;6.37;;
4766;SDS011;2397;53.576;9.746;2023-05-07T09:11:36;6.37;;;5.80;;
4766;SDS011;2397;53.576;9.746;2023-05-07T09:14:03;6.37;;;5.77;;
4766;SDS011;2397;53.576;9.746;2023-05-07T09:16:35;8.60;;;6.30;;
4766;SDS011;2397;53.576;9.746;2023-05-07T09:19:03;7.27;;;5.60;;
4766;SDS011;2397;53.576;9.746;2023-05-07T09:21:29;6.13;;;5.43;;
4766;SDS011;2397;53.576;9.746;2023-05-07T09:23:58;6.30;;;5.77;;
4766;SDS011;2397;53.576;9.746;2023-05-07T09:26:35;6.40;;;5.80;;
4766;SDS011;2397;53.576;9.746;2023-05-07T09:29:03;5.93;;;5.20;;
4766;SDS011;2397;53.576;9.746;2023-05-07T09:31:30;6.80;;;5.83;;
4766;SDS011;2397;53.576;9.746;2023-05-07T09:33:57;6.80;;;6.20;;
4766;SDS011;2397;53.576;9.746;2023-05-07T09:36:27;8.23;;;6.27;;
4766;SDS011;2397;53.576;9.746;2023-05-07T09:38:53;6.50;;;5.60;;
4766;SDS011;2397;53.576;9.746;2023-05-07T09:41:20;6.57;;;5.97;;
4766;SDS011;2397;53.576;9.746;2023-05-07T09:43:57;6.00;;;5.50;;
4766;SDS011;2397;53.576;9.746;2023-05-07T09:46:30;6.77;;;6.00;;
4766;SDS011;2397;53.576;9.746;2023-05-07T09:49:04;7.90;;;5.53;;
4766;SDS011;2397;53.576;9.746;2023-05-07T09:51:39;6.83;;;6.23;;
4766;SDS011;2397;53.576;9.746;2023-05-07T09:54:09;7.13;;;6.43;;
4766;SDS011;2397;53.576;9.746;2023-05-07T09:56:39;6.33;;;5.80;;
4766;SDS011;2397;53.576;9.746;2023-05-07T09:59:10;6.83;;;6.20;;
4766;SDS011;2397;53.576;9.746;2023-05-07T10:01:40;7.00;;;6.23;;
4766;SDS011;2397;53.576;9.746;2023-05-07T10:04:09;6.20;;;5.60;;
4766;SDS011;2397;53.576;9.746;2023-05-07T10:06:38;8.37;;;6.30;;
4766;SDS011;2397;53.576;9.746;2023-05-07T10:09:05;7.60;;;6.23;;
4766;SDS011;2397;53.576;9.746;2023-05-07T10:11:35;6.97;;;6.20;;
4766;SDS011;2397;53.576;9.746;2023-05-07T10:14:03;7.03;;;6.33;;
4766;SDS011;2397;53.576;9.746;2023-05-07T10:16:32;6.50;;;5.90;;
4766;SDS011;2397;53.576;9.746;2023-05-07T10:19:06;7.27;;;6.57;;
4766;SDS011;2397;53.576;9.746;2023-05-07T10:21:36;7.23;;;5.90;;
4766;SDS011;2397;53.576;9.746;2023-05-07T10:27:09;8.80;;;5.60;;
4766;SDS011;2397;53.576;9.746;2023-05-07T10:29:45;6.60;;;6.00;;
4766;SDS011;2397;53.576;9.746;2023-05-07T10:32:37;6.10;;;5.50;;
4766;SDS011;2397;53.576;9.746;2023-05-07T10:35:09;6.43;;;5.87;;
4766;SDS011;2397;53.576;9.746;2023-05-07T10:37:40;6.13;;;5.63;;
4766;SDS011;2397;53.576;9.746;2023-05-07T10:40:08;6.70;;;5.80;;
4766;SDS011;2397;53.576;9.746;2023-05-07T10:42:36;7.40;;;6.37;;
4766;SDS011;2397;53.576;9.746;2023-05-07T10:45:12;7.30;;;6.60;;
4766;SDS011;2397;53.576;9.746;2023-05-07T10:50:51;7.83;;;5.50;;
4766;SDS011;2397;53.576;9.746;2023-05-07T10:56:41;10.87;;;6.50;;
4766;SDS011;2397;53.576;9.746;2023-05-07T11:01:54;6.80;;;6.10;;
4766;SDS011;2397;53.576;9.746;2023-05-07T11:04:40;6.47;;;5.93;;
4766;SDS011;2397;53.576;9.746;2023-05-07T11:07:26;7.03;;;6.40;;
4766;SDS011;2397;53.576;9.746;2023-05-07T11:09:59;6.23;;;5.60;;
4766;SDS011;2397;53.576;9.746;2023-05-07T11:12:47;6.00;;;5.50;;
4766;SDS011;2397;53.576;9.746;2023-05-07T11:15:36;7.47;;;5.47;;
4766;SDS011;2397;53.576;9.746;2023-05-07T11:18:17;6.30;;;5.80;;
4766;SDS011;2397;53.576;9.746;2023-05-07T11:20:46;5.50;;;5.00;;
4766;SDS011;2397;53.576;9.746;2023-05-07T11:26:17;6.20;;;5.60;;
4766;SDS011;2397;53.576;9.746;2023-05-07T11:28:44;6.30;;;5.43;;
4766;SDS011;2397;53.576;9.746;2023-05-07T11:31:10;5.87;;;5.40;;
4766;SDS011;2397;53.576;9.746;2023-05-07T11:33:38;6.00;;;5.50;;
4766;SDS011;2397;53.576;9.746;2023-05-07T11:36:10;5.87;;;5.37;;
4766;SDS011;2397;53.576;9.746;2023-05-07T11:38:43;6.37;;;5.77;;
4766;SDS011;2397;53.576;9.746;2023-05-07T11:41:09;6.67;;;6.07;;
4766;SDS011;2397;53.576;9.746;2023-05-07T11:43:36;5.27;;;4.87;;
4766;SDS011;2397;53.576;9.746;2023-05-07T11:46:07;5.90;;;5.40;;
4766;SDS011;2397;53.576;9.746;2023-05-07T11:48:35;6.27;;;5.70;;
4766;SDS011;2397;53.576;9.746;2023-05-07T11:51:03;7.03;;;6.33;;
4766;SDS011;2397;53.576;9.746;2023-05-07T11:56:09;6.00;;;5.37;;
4766;SDS011;2397;53.576;9.746;2023-05-07T11:58:38;6.13;;;5.23;;
4766;SDS011;2397;53.576;9.746;2023-05-07T12:01:07;7.10;;;6.30;;
4766;SDS011;2397;53.576;9.746;2023-05-07T12:03:41;6.27;;;5.77;;
4766;SDS011;2397;53.576;9.746;2023-05-07T12:06:10;6.63;;;5.43;;
4766;SDS011;2397;53.576;9.746;2023-05-07T12:08:38;5.17;;;4.67;;
4766;SDS011;2397;53.576;9.746;2023-05-07T12:11:10;5.10;;;4.67;;
4766;SDS011;2397;53.576;9.746;2023-05-07T12:13:40;4.93;;;4.57;;
4766;SDS011;2397;53.576;9.746;2023-05-07T12:16:07;5.20;;;4.70;;
4766;SDS011;2397;53.576;9.746;2023-05-07T12:18:36;5.23;;;4.80;;
4766;SDS011;2397;53.576;9.746;2023-05-07T12:21:04;6.10;;;5.50;;
4766;SDS011;2397;53.576;9.746;2023-05-07T12:23:31;5.43;;;4.17;;
4766;SDS011;2397;53.576;9.746;2023-05-07T12:25:59;4.63;;;4.23;;
4766;SDS011;2397;53.576;9.746;2023-05-07T12:28:26;5.23;;;4.83;;
4766;SDS011;2397;53.576;9.746;2023-05-07T12:30:53;5.37;;;4.97;;
4766;SDS011;2397;53.576;9.746;2023-05-07T12:33:23;7.13;;;5.00;;
4766;SDS011;2397;53.576;9.746;2023-05-07T12:35:52;4.57;;;4.27;;
4766;SDS011;2397;53.576;9.746;2023-05-07T12:38:20;4.53;;;4.23;;
4766;SDS011;2397;53.576;9.746;2023-05-07T12:40:52;5.07;;;4.67;;
4766;SDS011;2397;53.576;9.746;2023-05-07T12:43:21;4.70;;;4.10;;
4766;SDS011;2397;53.576;9.746;2023-05-07T12:45:51;4.60;;;4.20;;
4766;SDS011;2397;53.576;9.746;2023-05-07T12:48:21;5.20;;;4.70;;
4766;SDS011;2397;53.576;9.746;2023-05-07T12:50:51;4.17;;;3.87;;
4766;SDS011;2397;53.576;9.746;2023-05-07T12:53:20;6.40;;;4.50;;
4766;SDS011;2397;53.576;9.746;2023-05-07T12:55:49;5.30;;;4.70;;
4766;SDS011;2397;53.576;9.746;2023-05-07T13:00:44;3.73;;;3.47;;
4766;SDS011;2397;53.576;9.746;2023-05-07T13:03:11;4.60;;;4.20;;
4766;SDS011;2397;53.576;9.746;2023-05-07T13:05:38;4.33;;;3.93;;
4766;SDS011;2397;53.576;9.746;2023-05-07T13:08:05;4.43;;;3.30;;
4766;SDS011;2397;53.576;9.746;2023-05-07T13:10:32;3.97;;;3.70;;
4766;SDS011;2397;53.576;9.746;2023-05-07T13:13:00;4.17;;;3.90;;
4766;SDS011;2397;53.576;9.746;2023-05-07T13:15:26;4.00;;;3.70;;
4766;SDS011;2397;53.576;9.746;2023-05-07T13:17:53;3.70;;;3.50;;
4766;SDS011;2397;53.576;9.746;2023-05-07T13:20:20;3.67;;;3.30;;
4766;SDS011;2397;53.576;9.746;2023-05-07T13:22:46;4.00;;;3.70;;
4766;SDS011;2397;53.576;9.746;2023-05-07T13:25:13;3.30;;;3.10;;
4766;SDS011;2397;53.576;9.746;2023-05-07T13:27:40;6.47;;;3.50;;
4766;SDS011;2397;53.576;9.746;2023-05-07T13:30:07;3.57;;;3.37;;
4766;SDS011;2397;53.576;9.746;2023-05-07T13:32:33;3.57;;;3.23;;
4766;SDS011;2397;53.576;9.746;2023-05-07T13:35:01;3.90;;;3.50;;
4766;SDS011;2397;53.576;9.746;2023-05-07T13:37:28;3.30;;;3.10;;
4766;SDS011;2397;53.576;9.746;2023-05-07T13:39:54;3.37;;;3.17;;
4766;SDS011;2397;53.576;9.746;2023-05-07T13:42:21;5.40;;;3.00;;
4766;SDS011;2397;53.576;9.746;2023-05-07T13:44:47;5.50;;;2.90;;
4766;SDS011;2397;53.576;9.746;2023-05-07T13:47:14;3.50;;;3.20;;
4766;SDS011;2397;53.576;9.746;2023-05-07T13:49:40;3.57;;;3.27;;
4766;SDS011;2397;53.576;9.746;2023-05-07T13:52:07;3.10;;;2.90;;
4766;SDS011;2397;53.576;9.746;2023-05-07T13:54:33;3.53;;;3.23;;
4766;SDS011;2397;53.576;9.746;2023-05-07T13:57:00;3.33;;;3.13;;
4766;SDS011;2397;53.576;9.746;2023-05-07T13:59:27;3.57;;;3.27;;
4766;SDS011;2397;53.576;9.746;2023-05-07T14:01:54;3.73;;;3.53;;
4766;SDS011;2397;53.576;9.746;2023-05-07T14:04:21;2.90;;;2.70;;
4766;SDS011;2397;53.576;9.746;2023-05-07T14:06:47;3.40;;;3.20;;
4766;SDS011;2397;53.576;9.746;2023-05-07T14:09:14;3.63;;;3.40;;
4766;SDS011;2397;53.576;9.746;2023-05-07T14:11:41;4.13;;;3.73;;
4766;SDS011;2397;53.576;9.746;2023-05-07T14:14:07;3.03;;;2.83;;
4766;SDS011;2397;53.576;9.746;2023-05-07T14:16:36;4.53;;;3.50;;
4766;SDS011;2397;53.576;9.746;2023-05-07T14:19:03;3.00;;;2.63;;
4766;SDS011;2397;53.576;9.746;2023-05-07T14:21:30;3.33;;;3.00;;
4766;SDS011;2397;53.576;9.746;2023-05-07T14:23:57;4.33;;;3.40;;
4766;SDS011;2397;53.576;9.746;2023-05-07T14:26:23;4.03;;;3.07;;
4766;SDS011;2397;53.576;9.746;2023-05-07T14:28:50;5.60;;;3.17;;
4766;SDS011;2397;53.576;9.746;2023-05-07T14:31:16;4.57;;;3.00;;
4766;SDS011;2397;53.576;9.746;2023-05-07T14:33:43;3.20;;;3.00;;
4766;SDS011;2397;53.576;9.746;2023-05-07T14:36:09;2.97;;;2.77;;
4766;SDS011;2397;53.576;9.746;2023-05-07T14:38:36;3.17;;;2.93;;
4766;SDS011;2397;53.576;9.746;2023-05-07T14:41:02;3.10;;;2.90;;
4766;SDS011;2397;53.576;9.746;2023-05-07T14:43:29;3.10;;;2.80;;
4766;SDS011;2397;53.576;9.746;2023-05-07T14:45:55;3.57;;;3.30;;
4766;SDS011;2397;53.576;9.746;2023-05-07T14:48:22;4.10;;;3.70;;
4766;SDS011;2397;53.576;9.746;2023-05-07T14:50:49;3.83;;;3.53;;
4766;SDS011;2397;53.576;9.746;2023-05-07T14:53:15;5.47;;;4.10;;
4766;SDS011;2397;53.576;9.746;2023-05-07T14:55:42;3.83;;;3.53;;
4766;SDS011;2397;53.576;9.746;2023-05-07T14:58:10;3.27;;;3.03;;
4766;SDS011;2397;53.576;9.746;2023-05-07T15:00:37;6.30;;;4.13;;
4766;SDS011;2397;53.576;9.746;2023-05-07T15:03:05;2.80;;;2.60;;
4766;SDS011;2397;53.576;9.746;2023-05-07T15:05:34;3.20;;;3.00;;
4766;SDS011;2397;53.576;9.746;2023-05-07T15:08:01;3.70;;;3.40;;
4766;SDS011;2397;53.576;9.746;2023-05-07T15:10:28;3.00;;;2.80;;
4766;SDS011;2397;53.576;9.746;2023-05-07T15:12:54;3.47;;;2.90;;
4766;SDS011;2397;53.576;9.746;2023-05-07T15:15:21;3.10;;;2.67;;
4766;SDS011;2397;53.576;9.746;2023-05-07T15:17:48;3.30;;;2.50;;
4766;SDS011;2397;53.576;9.746;2023-05-07T15:20:15;2.77;;;2.50;;
4766;SDS011;2397;53.576;9.746;2023-05-07T15:22:42;3.20;;;2.90;;
4766;SDS011;2397;53.576;9.746;2023-05-07T15:25:08;2.77;;;2.57;;
4766;SDS011;2397;53.576;9.746;2023-05-07T15:27:36;2.80;;;2.60;;
4766;SDS011;2397;53.576;9.746;2023-05-07T15:30:02;2.97;;;2.67;;
4766;SDS011;2397;53.576;9.746;2023-05-07T15:32:30;3.10;;;2.80;;
4766;SDS011;2397;53.576;9.746;2023-05-07T15:34:57;4.70;;;2.67;;
4766;SDS011;2397;53.576;9.746;2023-05-07T15:37:23;2.67;;;2.47;;
4766;SDS011;2397;53.576;9.746;2023-05-07T15:39:50;2.93;;;2.73;;